createdAt,value
2019-03-03T00:01:43.887Z,69.20
2019-03-03T00:04:13.878Z,74.27
2019-03-03T00:06:44.115Z,72.73
2019-03-03T00:09:16.026Z,72.30
2019-03-03T00:11:46.581Z,71.53
2019-03-03T00:14:16.635Z,78.23
2019-03-03T00:16:46.837Z,79.67
2019-03-03T00:19:17.166Z,77.87
2019-03-03T00:21:49.061Z,75.53
2019-03-03T00:24:19.387Z,87.77
2019-03-03T00:26:50.699Z,89.93
2019-03-03T00:29:20.921Z,103.77
2019-03-03T00:31:53.088Z,130.70
2019-03-03T00:34:24.282Z,153.03
2019-03-03T00:37:08.313Z,143.23
2019-03-03T00:39:57.624Z,103.20
2019-03-03T00:42:39.208Z,89.60
2019-03-03T00:45:30.007Z,73.47
2019-03-03T00:48:08.244Z,78.60
2019-03-03T00:50:57.380Z,83.17
2019-03-03T00:53:46.377Z,79.53
2019-03-03T00:56:35.642Z,88.13
2019-03-03T00:59:13.476Z,91.37
2019-03-03T01:01:51.978Z,81.00
2019-03-03T01:04:28.433Z,87.73
2019-03-03T01:07:16.310Z,91.50
2019-03-03T01:10:00.231Z,87.97
2019-03-03T01:12:49.567Z,87.87
2019-03-03T01:15:30.050Z,88.33
2019-03-03T01:18:12.204Z,91.67
2019-03-03T01:21:01.669Z,95.70
2019-03-03T01:23:50.812Z,91.53
2019-03-03T01:26:21.088Z,95.40
2019-03-03T01:28:51.214Z,95.97
2019-03-03T01:31:21.361Z,94.80
2019-03-03T01:33:51.512Z,80.50
2019-03-03T01:36:21.643Z,86.00
2019-03-03T01:38:51.812Z,88.37
2019-03-03T01:41:22.995Z,92.67
2019-03-03T01:43:53.075Z,97.47
2019-03-03T01:46:23.203Z,87.80
2019-03-03T01:48:53.372Z,92.90
2019-03-03T01:51:23.652Z,83.20
2019-03-03T01:53:53.939Z,95.47
2019-03-03T01:56:24.191Z,90.13
2019-03-03T01:58:54.328Z,87.90
2019-03-03T02:01:24.619Z,98.53
2019-03-03T02:03:54.576Z,83.93
2019-03-03T02:06:24.666Z,101.33
2019-03-03T02:08:54.810Z,93.83
2019-03-03T02:11:24.870Z,113.70
2019-03-03T02:13:55.129Z,99.07
2019-03-03T02:16:25.484Z,87.93
2019-03-03T02:18:55.821Z,93.63
2019-03-03T02:21:26.045Z,94.27
2019-03-03T02:23:56.423Z,93.60
2019-03-03T02:26:26.683Z,102.23
2019-03-03T02:28:57.068Z,105.37
2019-03-03T02:31:27.266Z,103.17
2019-03-03T02:33:57.527Z,92.97
2019-03-03T02:36:27.615Z,101.67
2019-03-03T02:38:57.737Z,108.47
2019-03-03T02:41:27.868Z,89.23
2019-03-03T02:43:57.846Z,110.87
2019-03-03T02:46:28.127Z,113.43
2019-03-03T02:48:58.433Z,95.33
2019-03-03T02:51:28.562Z,103.47
2019-03-03T02:53:58.771Z,106.77
2019-03-03T02:56:28.957Z,104.17
2019-03-03T02:58:59.142Z,95.67
2019-03-03T03:01:34.646Z,113.87
2019-03-03T03:04:04.937Z,109.50
2019-03-03T03:06:54.397Z,113.70
2019-03-03T03:09:37.836Z,105.13
2019-03-03T03:12:27.017Z,96.33
2019-03-03T03:15:16.521Z,106.00
2019-03-03T03:17:56.001Z,109.80
2019-03-03T03:20:39.613Z,97.13
2019-03-03T03:23:15.975Z,109.60
2019-03-03T03:26:05.107Z,116.50
2019-03-03T03:28:47.048Z,104.00
2019-03-03T03:31:26.705Z,88.23
2019-03-03T03:34:03.515Z,110.97
2019-03-03T03:36:52.771Z,112.37
2019-03-03T03:39:41.902Z,112.73
2019-03-03T03:42:20.449Z,113.13
2019-03-03T03:45:02.313Z,114.87
2019-03-03T03:47:51.557Z,107.57
2019-03-03T03:50:40.674Z,111.97
2019-03-03T03:53:17.272Z,106.67
2019-03-03T03:56:00.010Z,115.30
2019-03-03T03:58:36.238Z,108.43
2019-03-03T04:01:25.464Z,115.07
2019-03-03T04:04:14.845Z,116.57
2019-03-03T04:06:57.855Z,116.03
2019-03-03T04:09:35.696Z,115.60
2019-03-03T04:12:24.696Z,102.87
2019-03-03T04:15:09.038Z,99.63
2019-03-03T04:17:58.111Z,102.23
2019-03-03T04:20:36.287Z,107.77
2019-03-03T04:23:25.431Z,109.27
2019-03-03T04:26:07.038Z,107.27
2019-03-03T04:28:44.872Z,101.80
2019-03-03T04:31:28.553Z,109.00
2019-03-03T04:34:05.962Z,107.90
2019-03-03T04:36:46.706Z,117.03
2019-03-03T04:39:35.750Z,106.87
2019-03-03T04:42:15.451Z,110.27
2019-03-03T04:44:52.179Z,109.07
2019-03-03T04:47:30.960Z,98.37
2019-03-03T04:50:15.946Z,115.47
2019-03-03T04:52:51.534Z,103.27
2019-03-03T04:55:33.581Z,100.10
2019-03-03T04:58:19.590Z,103.43
2019-03-03T05:01:08.638Z,95.13
2019-03-03T05:03:57.684Z,104.50
2019-03-03T05:06:46.778Z,106.13
2019-03-03T05:09:23.900Z,105.90
2019-03-03T05:12:27.070Z,108.83
2019-03-03T05:15:02.496Z,95.27
2019-03-03T05:17:43.272Z,101.97
2019-03-03T05:20:13.570Z,100.47
2019-03-03T05:22:46.065Z,105.80
2019-03-03T05:25:16.218Z,95.77
2019-03-03T05:27:46.295Z,98.30
2019-03-03T05:30:16.334Z,118.20
2019-03-03T05:32:46.437Z,104.93
2019-03-03T05:35:16.516Z,98.23
2019-03-03T05:37:46.525Z,99.27
2019-03-03T05:40:16.587Z,107.30
2019-03-03T05:42:46.744Z,116.00
2019-03-03T05:45:16.901Z,102.13
2019-03-03T05:47:46.996Z,107.67
2019-03-03T05:50:17.135Z,96.63
2019-03-03T05:52:47.137Z,101.80
2019-03-03T05:55:17.137Z,112.60
2019-03-03T05:57:48.489Z,98.97
2019-03-03T06:00:18.732Z,106.30
2019-03-03T06:02:48.829Z,115.53
2019-03-03T06:05:18.974Z,108.33
2019-03-03T06:07:48.947Z,119.80
2019-03-03T06:10:19.125Z,100.57
2019-03-03T06:12:49.157Z,105.47
2019-03-03T06:15:21.152Z,118.17
2019-03-03T06:17:51.270Z,117.67
2019-03-03T06:20:21.889Z,118.43
2019-03-03T06:22:51.938Z,105.33
2019-03-03T06:25:22.120Z,110.43
2019-03-03T06:27:52.225Z,115.87
2019-03-03T06:30:22.401Z,112.77
2019-03-03T06:32:52.575Z,111.50
2019-03-03T06:35:22.753Z,108.10
2019-03-03T06:37:52.890Z,107.27
2019-03-03T06:40:23.044Z,96.37
2019-03-03T06:42:53.199Z,114.87
2019-03-03T06:45:23.379Z,116.97
2019-03-03T06:47:53.576Z,104.40
2019-03-03T06:50:23.620Z,121.83
2019-03-03T06:52:55.180Z,104.47
2019-03-03T06:55:25.194Z,96.20
2019-03-03T06:57:55.296Z,101.33
2019-03-03T07:00:25.482Z,111.63
2019-03-03T07:02:55.682Z,109.30
2019-03-03T07:05:26.194Z,102.57
2019-03-03T07:07:56.438Z,112.77
2019-03-03T07:10:26.604Z,96.07
2019-03-03T07:12:56.782Z,97.00
2019-03-03T07:15:27.024Z,112.70
2019-03-03T07:17:57.202Z,110.67
2019-03-03T07:20:27.276Z,106.77
2019-03-03T07:22:57.406Z,118.27
2019-03-03T07:25:27.556Z,119.53
2019-03-03T07:27:57.637Z,96.37
2019-03-03T07:30:28.044Z,92.43
2019-03-03T07:33:17.469Z,109.77
2019-03-03T07:35:48.602Z,75.77
2019-03-03T07:38:18.887Z,119.63
2019-03-03T07:40:48.966Z,109.90
2019-03-03T07:43:19.124Z,96.93
2019-03-03T07:45:49.190Z,99.90
2019-03-03T07:48:19.393Z,71.83
2019-03-03T07:50:49.630Z,103.10
2019-03-03T07:53:19.816Z,105.80
2019-03-03T07:55:50.028Z,98.23
2019-03-03T07:58:20.147Z,102.47
2019-03-03T08:00:54.027Z,97.70
2019-03-03T08:03:24.248Z,117.60
2019-03-03T08:05:54.457Z,100.83
2019-03-03T08:08:24.636Z,115.47
2019-03-03T08:10:57.561Z,106.50
2019-03-03T08:13:28.840Z,91.20
2019-03-03T08:15:59.023Z,82.40
2019-03-03T08:18:29.127Z,90.87
2019-03-03T08:20:59.286Z,98.20
2019-03-03T08:23:29.399Z,93.07
2019-03-03T08:25:59.536Z,95.57
2019-03-03T08:28:29.650Z,67.60
2019-03-03T08:30:59.835Z,84.03
2019-03-03T08:33:30.008Z,87.53
2019-03-03T08:36:00.227Z,61.67
2019-03-03T08:38:30.478Z,102.00
2019-03-03T08:41:00.598Z,56.13
2019-03-03T08:43:37.332Z,93.82
2019-03-03T08:46:17.053Z,99.40
2019-03-03T08:48:57.490Z,92.07
2019-03-03T08:51:46.501Z,92.00
2019-03-03T08:54:35.564Z,82.77
2019-03-03T08:57:32.814Z,85.87
2019-03-03T09:00:22.014Z,90.28
2019-03-03T09:03:11.514Z,94.87
2019-03-03T09:05:50.238Z,97.93
2019-03-03T09:08:32.260Z,63.97
2019-03-03T09:11:21.462Z,97.55
2019-03-03T09:13:58.290Z,83.17
2019-03-03T09:16:48.363Z,82.33
2019-03-03T09:19:37.692Z,66.22
2019-03-03T09:22:20.016Z,77.53
2019-03-03T09:25:00.621Z,84.07
2019-03-03T09:27:49.798Z,70.40
2019-03-03T09:30:38.867Z,87.75
2019-03-03T09:33:28.024Z,61.60
2019-03-03T09:36:17.072Z,64.90
2019-03-03T09:39:00.878Z,87.50
2019-03-03T09:41:48.157Z,86.05
2019-03-03T09:44:37.377Z,87.42
2019-03-03T09:47:26.573Z,93.70
2019-03-03T09:50:15.715Z,63.37
2019-03-03T09:53:01.037Z,60.83
2019-03-03T09:55:50.191Z,82.57
2019-03-03T09:58:39.296Z,82.88
2019-03-03T10:01:15.706Z,81.00
2019-03-03T10:04:05.444Z,61.93
2019-03-03T10:06:54.592Z,66.92
2019-03-03T10:09:43.987Z,71.40
2019-03-03T10:12:19.312Z,66.82
2019-03-03T10:15:08.420Z,73.67
2019-03-03T10:17:51.481Z,67.27
2019-03-03T10:20:40.655Z,67.42
2019-03-03T10:23:29.881Z,67.60
2019-03-03T10:26:19.177Z,63.33
2019-03-03T10:29:08.537Z,71.82
2019-03-03T10:31:57.986Z,72.22
2019-03-03T10:34:47.375Z,61.45
2019-03-03T10:37:36.499Z,69.05
2019-03-03T10:40:16.651Z,44.60
2019-03-03T10:42:57.980Z,49.60
2019-03-03T10:45:39.633Z,64.58
2019-03-03T10:48:28.861Z,53.70
2019-03-03T10:51:18.199Z,67.12
2019-03-03T10:54:03.876Z,61.55
2019-03-03T10:56:53.078Z,64.95
2019-03-03T10:59:35.470Z,51.73
2019-03-03T11:02:15.473Z,66.53
2019-03-03T11:05:04.908Z,67.90
2019-03-03T11:07:54.226Z,65.42
2019-03-03T11:10:34.298Z,68.00
2019-03-03T11:13:16.191Z,65.87
2019-03-03T11:16:05.306Z,73.33
2019-03-03T11:18:45.168Z,78.95
2019-03-03T11:21:34.408Z,68.47
2019-03-03T11:24:23.794Z,66.87
2019-03-03T11:27:03.965Z,77.22
2019-03-03T11:29:53.063Z,70.37
2019-03-03T11:32:43.829Z,72.37
2019-03-03T11:35:36.068Z,56.63
2019-03-03T11:38:11.612Z,71.57
2019-03-03T11:40:56.031Z,51.18
2019-03-03T11:43:45.490Z,58.63
2019-03-03T11:46:34.907Z,62.43
2019-03-03T11:49:24.368Z,79.15
2019-03-03T11:52:13.819Z,79.20
2019-03-03T11:54:49.924Z,64.82
2019-03-03T11:57:24.516Z,64.53
2019-03-03T12:00:13.697Z,68.17
2019-03-03T12:03:02.965Z,48.35
2019-03-03T12:05:52.283Z,70.60
2019-03-03T12:08:41.670Z,56.33
2019-03-03T12:11:23.908Z,67.08
2019-03-03T12:14:13.160Z,48.55
2019-03-03T12:17:02.496Z,71.75
2019-03-03T12:19:39.127Z,72.27
2019-03-03T12:22:28.316Z,65.85
2019-03-03T12:25:17.511Z,71.95
2019-03-03T12:28:08.393Z,70.22
2019-03-03T12:30:45.427Z,71.47
2019-03-03T12:33:34.592Z,73.05
2019-03-03T12:36:24.907Z,65.62
2019-03-03T12:39:34.250Z,76.70
2019-03-03T12:42:12.574Z,77.60
2019-03-03T12:44:55.181Z,66.53
2019-03-03T12:47:44.319Z,93.17
2019-03-03T12:50:29.356Z,73.45
2019-03-03T12:53:18.672Z,60.95
2019-03-03T12:56:05.830Z,70.78
2019-03-03T12:58:45.357Z,70.60
2019-03-03T13:01:32.591Z,45.33
2019-03-03T13:04:21.729Z,79.70
2019-03-03T13:07:11.903Z,64.12
2019-03-03T13:09:49.259Z,86.53
2019-03-03T13:12:38.468Z,71.97
2019-03-03T13:15:27.960Z,55.95
2019-03-03T13:18:13.635Z,66.10
2019-03-03T13:21:02.766Z,70.20
2019-03-03T13:23:52.054Z,71.72
2019-03-03T13:26:38.709Z,79.92
2019-03-03T13:29:28.053Z,64.42
2019-03-03T13:32:17.163Z,65.00
2019-03-03T13:34:55.088Z,59.53
2019-03-03T13:37:42.630Z,65.15
2019-03-03T13:40:22.990Z,61.88
2019-03-03T13:42:57.084Z,65.75
2019-03-03T13:45:30.219Z,37.40
2019-03-03T13:48:00.463Z,66.02
2019-03-03T13:50:30.938Z,60.52
2019-03-03T13:53:02.128Z,76.15
2019-03-03T13:55:32.343Z,71.87
2019-03-03T13:58:02.616Z,62.95
2019-03-03T14:00:32.801Z,71.15
2019-03-03T14:03:03.202Z,67.82
2019-03-03T14:05:33.522Z,53.38
2019-03-03T14:08:03.995Z,63.30
2019-03-03T14:10:34.421Z,62.95
2019-03-03T14:13:05.770Z,56.18
2019-03-03T14:15:36.441Z,58.98
2019-03-03T14:18:06.944Z,69.37
2019-03-03T14:20:37.180Z,67.72
2019-03-03T14:23:07.506Z,68.70
2019-03-03T14:25:38.107Z,68.45
2019-03-03T14:28:08.380Z,62.55
2019-03-03T14:30:38.742Z,62.10
2019-03-03T14:33:08.889Z,61.90
2019-03-03T14:35:38.976Z,50.43
2019-03-03T14:38:09.473Z,47.03
2019-03-03T14:40:39.790Z,53.75
2019-03-03T14:43:09.915Z,35.85
2019-03-03T14:45:40.217Z,57.88
2019-03-03T14:48:11.249Z,58.08
2019-03-03T14:50:41.472Z,52.33
2019-03-03T14:53:11.626Z,62.17
2019-03-03T14:55:42.045Z,58.92
2019-03-03T14:58:12.434Z,66.57
2019-03-03T15:00:42.708Z,52.55
2019-03-03T15:03:12.979Z,68.17
2019-03-03T15:05:43.332Z,43.70
2019-03-03T15:08:13.557Z,55.67
2019-03-03T15:11:02.961Z,60.73
2019-03-03T15:13:51.316Z,56.60
2019-03-03T15:16:57.492Z,58.13
2019-03-03T15:19:52.748Z,61.68
2019-03-03T15:22:51.362Z,66.85
2019-03-03T15:25:45.859Z,60.88
2019-03-03T15:28:25.419Z,60.52
2019-03-03T15:30:58.073Z,56.17
2019-03-03T15:33:45.604Z,45.55
2019-03-03T15:36:26.612Z,49.53
2019-03-03T15:39:12.789Z,49.33
2019-03-03T15:41:44.533Z,47.62
2019-03-03T15:44:15.212Z,44.55
2019-03-03T15:46:45.899Z,49.03
2019-03-03T15:49:18.506Z,53.08
2019-03-03T15:51:49.485Z,47.80
2019-03-03T15:54:19.966Z,33.60
2019-03-03T15:56:56.850Z,44.83
2019-03-03T15:59:29.382Z,46.92
2019-03-03T16:02:02.426Z,53.92
2019-03-03T16:04:33.445Z,45.10
2019-03-03T16:07:12.032Z,47.80
2019-03-03T16:09:43.861Z,42.23
2019-03-03T16:12:14.774Z,39.92
2019-03-03T16:14:45.064Z,40.00
2019-03-03T16:17:15.323Z,40.70
2019-03-03T16:19:58.305Z,38.78
2019-03-03T16:22:28.962Z,32.05
2019-03-03T16:25:04.104Z,38.10
2019-03-03T16:27:36.023Z,38.20
2019-03-03T16:30:06.654Z,32.00
2019-03-03T16:32:37.695Z,36.98
2019-03-03T16:35:08.675Z,37.30
2019-03-03T16:37:41.149Z,33.63
2019-03-03T16:40:14.295Z,35.10
2019-03-03T16:42:44.484Z,37.10
2019-03-03T16:45:37.155Z,38.45
2019-03-03T16:48:14.518Z,36.75
2019-03-03T16:50:44.700Z,37.85
2019-03-03T16:53:25.884Z,36.25
2019-03-03T16:56:06.423Z,35.38
2019-03-03T16:58:37.706Z,42.27
2019-03-03T17:01:15.998Z,35.35
2019-03-03T17:04:13.571Z,30.48
2019-03-03T17:09:57.200Z,31.37
2019-03-03T17:12:28.792Z,25.88
2019-03-03T17:14:59.049Z,27.20
2019-03-03T17:17:29.608Z,27.85
2019-03-03T17:19:59.806Z,32.88
2019-03-03T17:22:30.409Z,33.73
2019-03-03T17:25:00.731Z,29.10
2019-03-03T17:28:09.650Z,26.37
2019-03-03T17:30:50.702Z,30.55
2019-03-03T17:33:28.383Z,31.33
2019-03-03T17:36:26.292Z,19.35
2019-03-03T17:39:20.673Z,28.00
2019-03-03T17:42:16.046Z,24.77
2019-03-03T17:45:21.892Z,25.88
2019-03-03T17:48:20.386Z,26.40
2019-03-03T17:51:56.072Z,21.17
2019-03-03T17:54:26.630Z,27.13
2019-03-03T17:56:56.689Z,26.05
2019-03-03T17:59:28.449Z,26.90
2019-03-03T18:01:58.780Z,33.80
2019-03-03T18:04:30.217Z,29.07
2019-03-03T18:07:00.779Z,26.05
2019-03-03T18:09:31.302Z,28.67
2019-03-03T18:12:01.672Z,28.42
2019-03-03T18:14:31.886Z,29.63
2019-03-03T18:17:02.070Z,21.45
2019-03-03T18:19:32.131Z,36.08
2019-03-03T18:22:02.174Z,25.23
2019-03-03T18:24:33.351Z,37.67
2019-03-03T18:27:03.763Z,31.42
2019-03-03T18:29:33.933Z,29.10
2019-03-03T18:32:04.153Z,23.52
2019-03-03T18:34:34.187Z,33.02
2019-03-03T18:37:04.492Z,34.25
2019-03-03T18:39:36.927Z,34.83
2019-03-03T18:42:07.254Z,38.25
2019-03-03T18:44:37.593Z,34.98
2019-03-03T18:47:07.683Z,28.17
2019-03-03T18:49:37.897Z,39.65
2019-03-03T18:52:08.045Z,34.55
2019-03-03T18:54:38.981Z,32.35
2019-03-03T18:57:13.681Z,33.50
2019-03-03T18:59:44.277Z,37.70
2019-03-03T19:02:15.803Z,30.92
2019-03-03T19:04:46.054Z,39.60
2019-03-03T19:07:16.363Z,37.08
2019-03-03T19:09:46.688Z,27.58
2019-03-03T19:12:17.007Z,35.85
2019-03-03T19:14:47.048Z,33.88
2019-03-03T19:17:19.116Z,37.58
2019-03-03T19:19:49.386Z,26.75
2019-03-03T19:22:19.490Z,28.40
2019-03-03T19:24:49.605Z,39.30
2019-03-03T19:27:19.794Z,37.25
2019-03-03T19:29:49.953Z,35.43
2019-03-03T19:32:20.249Z,27.62
2019-03-03T19:34:51.559Z,36.35
2019-03-03T19:37:21.869Z,32.70
2019-03-03T19:39:52.154Z,37.45
2019-03-03T19:42:22.365Z,33.28
2019-03-03T19:44:54.031Z,33.30
2019-03-03T19:47:24.423Z,32.60
2019-03-03T19:49:54.583Z,31.27
2019-03-03T19:52:24.880Z,27.67
2019-03-03T19:54:55.117Z,27.70
2019-03-03T19:57:25.362Z,29.00
2019-03-03T19:59:55.550Z,36.08
2019-03-03T20:02:26.977Z,25.95
2019-03-03T20:04:57.165Z,30.90
2019-03-03T20:07:27.397Z,25.80
2019-03-03T20:09:57.793Z,30.77
2019-03-03T20:12:28.096Z,37.00
2019-03-03T20:14:58.747Z,25.85
2019-03-03T20:17:29.949Z,26.25
2019-03-03T20:20:00.313Z,35.43
2019-03-03T20:22:30.660Z,32.05
2019-03-03T20:25:00.850Z,31.73
2019-03-03T20:27:33.610Z,29.77
2019-03-03T20:30:05.045Z,29.98
2019-03-03T20:32:35.300Z,27.62
2019-03-03T20:35:06.183Z,29.05
2019-03-03T20:37:36.383Z,30.50
2019-03-03T20:40:08.967Z,30.85
2019-03-03T20:42:39.445Z,30.57
2019-03-03T20:45:13.317Z,36.93
2019-03-03T20:47:44.566Z,28.60
2019-03-03T20:50:17.202Z,26.23
2019-03-03T20:52:47.617Z,32.58
2019-03-03T20:55:19.054Z,32.98
2019-03-03T20:57:49.155Z,34.45
2019-03-03T21:00:24.131Z,34.70
2019-03-03T21:02:54.287Z,31.85
2019-03-03T21:05:24.489Z,35.80
2019-03-03T21:07:54.836Z,35.20
2019-03-03T21:10:30.138Z,33.88
2019-03-03T21:13:00.473Z,30.10
2019-03-03T21:15:30.653Z,34.65
2019-03-03T21:18:00.907Z,36.48
2019-03-03T21:20:31.034Z,35.88
2019-03-03T21:23:04.626Z,31.37
2019-03-03T21:25:34.857Z,29.72
2019-03-03T21:28:06.576Z,37.40
2019-03-03T21:30:36.912Z,32.28
2019-03-03T21:33:07.164Z,36.42
2019-03-03T21:35:38.189Z,27.00
2019-03-03T21:38:08.671Z,36.48
2019-03-03T21:40:41.442Z,33.73
2019-03-03T21:43:13.114Z,32.17
2019-03-03T21:45:43.248Z,28.95
2019-03-03T21:48:13.339Z,35.38
2019-03-03T21:50:43.538Z,37.13
2019-03-03T21:53:13.687Z,30.50
2019-03-03T21:55:43.771Z,34.30
2019-03-03T21:58:13.919Z,32.38
2019-03-03T22:00:44.219Z,25.80
2019-03-03T22:03:14.471Z,34.38
2019-03-03T22:05:45.115Z,30.48
2019-03-03T22:08:15.970Z,33.13
2019-03-03T22:10:46.123Z,28.57
2019-03-03T22:13:16.934Z,32.78
2019-03-03T22:15:47.147Z,29.45
2019-03-03T22:18:17.436Z,22.15
2019-03-03T22:20:47.584Z,34.50
2019-03-03T22:23:17.696Z,29.30
2019-03-03T22:25:48.371Z,34.15
2019-03-03T22:28:18.538Z,29.92
2019-03-03T22:30:50.399Z,32.53
2019-03-03T22:33:20.527Z,23.80
2019-03-03T22:35:50.909Z,34.40
2019-03-03T22:38:21.293Z,32.78
2019-03-03T22:40:51.624Z,28.20
2019-03-03T22:43:21.659Z,26.62
2019-03-03T22:45:51.944Z,34.78
2019-03-03T22:48:22.294Z,33.53
2019-03-03T22:50:52.850Z,33.67
2019-03-03T22:53:23.397Z,32.15
2019-03-03T22:55:53.431Z,31.07
2019-03-03T22:58:23.579Z,27.80
2019-03-03T23:01:11.505Z,25.68
2019-03-03T23:04:07.110Z,18.98
2019-03-03T23:06:45.169Z,38.75
2019-03-03T23:09:55.295Z,41.55
2019-03-03T23:12:40.231Z,31.27
2019-03-03T23:15:29.860Z,41.77
2019-03-03T23:18:07.325Z,32.98
2019-03-03T23:21:15.703Z,42.03
2019-03-03T23:24:12.190Z,41.70
2019-03-03T23:26:42.537Z,39.88
2019-03-03T23:29:12.680Z,36.05
2019-03-03T23:31:42.770Z,43.30
2019-03-03T23:34:12.935Z,44.00
2019-03-03T23:36:43.013Z,42.75
2019-03-03T23:39:32.186Z,33.25
2019-03-03T23:42:02.406Z,43.40
2019-03-03T23:44:32.504Z,36.83
2019-03-03T23:47:02.783Z,42.90
2019-03-03T23:49:32.896Z,47.33
2019-03-03T23:52:03.101Z,34.67
2019-03-03T23:54:33.084Z,37.50
2019-03-03T23:57:03.269Z,41.28
2019-03-03T23:59:33.627Z,36.05
